M I D A S
Marine Information and Data Acquisition System
Tripno 749 of the Zeeleeuw from 2004-07-15 07:01:23 to 2004-07-15 15:27:17
Back to CruiseResearch ActivitiesStationsMapUnderway DataData graphs

EquipmentUnitsComments
TimeDGPSUTC
LatitudeDGPSDM.mWGS84
LongitudeDGPSDM.mWGS84
SpeedMeteo Stationm/sRelative wind speed
DirectionMeteo StationdegRelative wind direction
TemperatureMeteo Stationdeg CelciusAir temperature
PressureMeteo StationPaAtmospheric pressure
HumidityMeteo Station%Relative humidity
Missing or incorrect values are displayed as -999
Metereological data collected by the RV Zeeleeuw from 2004-07-15 07:01:23 to 2004-07-15 15:27:17
                                                                                    Next 1000 lines
Time Latitude Longitude Speed Direction Temperature Pressure Humidity
2004-07-15 07:01:28 51°13.597 2°56.097 5.5 134 16.9 101580 95
2004-07-15 07:01:35 51°13.597 2°56.097 4.8 135 16.9 101590 95
2004-07-15 07:01:40 51°13.597 2°56.097 4.4 133 16.9 101590 95
2004-07-15 07:01:45 51°13.597 2°56.097 3.5 153 16.9 101590 95
2004-07-15 07:01:49 51°13.597 2°56.097 4.1 140 16.9 101590 95
2004-07-15 07:01:55 51°13.597 2°56.097 5.3 157 16.9 101590 95
2004-07-15 07:02:00 51°13.596 2°56.097 5.1 225 16.9 101590 95
2004-07-15 07:02:05 51°13.596 2°56.097 4.5 123 16.9 101580 95
2004-07-15 07:02:09 51°13.596 2°56.097 4 137 16.9 101580 95
2004-07-15 07:02:15 51°13.596 2°56.097 3.5 134 16.9 101590 95
2004-07-15 07:02:20 51°13.596 2°56.097 4.4 138 16.9 101590 95
2004-07-15 07:02:25 51°13.596 2°56.097 4.1 135 16.9 101590 95
2004-07-15 07:02:28 51°13.596 2°56.097 3.9 133 16.9 101590 95
2004-07-15 07:02:35 51°13.596 2°56.096 4 134 16.9 101580 95
2004-07-15 07:02:40 51°13.596 2°56.094 3.9 138 16.9 101580 95
2004-07-15 07:02:45 51°13.596 2°56.091 3.4 153 16.9 101580 95
2004-07-15 07:02:49 51°13.596 2°56.088 3.4 149 16.9 101580 95
2004-07-15 07:02:55 51°13.597 2°56.083 2.9 166 16.9 101590 95
2004-07-15 07:03:01 51°13.599 2°56.077 4.9 165 16.9 101590 95
2004-07-15 07:03:05 51°13.6 2°56.073 4.1 166 16.9 101590 95
2004-07-15 07:03:11 51°13.602 2°56.066 3.7 158 16.9 101590 95
2004-07-15 07:03:16 51°13.603 2°56.061 3.5 183 16.9 101580 95
2004-07-15 07:03:21 51°13.604 2°56.057 3.2 175 16.9 101580 95
2004-07-15 07:03:25 51°13.605 2°56.055 1.8 185 16.9 101590 95
2004-07-15 07:03:31 51°13.605 2°56.053 3.1 183 16.9 101590 95
2004-07-15 07:03:36 51°13.605 2°56.053 4.1 143 16.9 101590 95
2004-07-15 07:03:41 51°13.604 2°56.054 3.3 122 16.9 101590 95
2004-07-15 07:03:45 51°13.604 2°56.055 2.6 109 16.9 101580 95
2004-07-15 07:03:51 51°13.603 2°56.058 2.8 115 16.9 101580 95
2004-07-15 07:03:55 51°13.602 2°56.06 2.9 121 16.9 101580 95
2004-07-15 07:04:00 51°13.6 2°56.063 2.3 105 16.9 101580 95
2004-07-15 07:04:05 51°13.598 2°56.067 1.6 132 16.9 101590 95
2004-07-15 07:04:11 51°13.596 2°56.072 2.6 92 16.9 101590 95
2004-07-15 07:04:15 51°13.594 2°56.075 2.4 96 16.9 101580 95
2004-07-15 07:04:20 51°13.591 2°56.08 2.1 81 16.9 101580 95
2004-07-15 07:04:25 51°13.589 2°56.085 2 90 16.9 101580 95
2004-07-15 07:04:30 51°13.586 2°56.09 2.1 89 16.9 101580 95
2004-07-15 07:04:35 51°13.583 2°56.095 1.8 105 16.9 101580 95
2004-07-15 07:04:40 51°13.58 2°56.1 3.4 130 16.9 101580 95
2004-07-15 07:04:45 51°13.577 2°56.106 2.8 146 16.9 101580 95
2004-07-15 07:04:49 51°13.575 2°56.11 2.5 145 16.9 101580 95
2004-07-15 07:04:55 51°13.571 2°56.117 2.4 147 16.9 101580 95
2004-07-15 07:05:00 51°13.567 2°56.122 1.6 132 16.9 101580 95
2004-07-15 07:05:05 51°13.564 2°56.128 1.8 133 16.9 101580 95
2004-07-15 07:05:10 51°13.561 2°56.133 1.8 126 16.9 101580 95
2004-07-15 07:05:15 51°13.557 2°56.139 1.7 113 16.9 101580 95
2004-07-15 07:05:19 51°13.555 2°56.144 2 113 16.9 101580 95
2004-07-15 07:05:25 51°13.551 2°56.15 1.7 111 16.9 101580 95
2004-07-15 07:05:29 51°13.548 2°56.155 2.1 108 16.9 101580 95
2004-07-15 07:05:35 51°13.545 2°56.162 2.3 119 16.9 101580 95
2004-07-15 07:05:40 51°13.542 2°56.168 1.9 100 16.9 101580 95
2004-07-15 07:05:45 51°13.54 2°56.175 2.1 99 16.9 101580 95
2004-07-15 07:05:49 51°13.538 2°56.181 3.3 125 16.9 101580 95
2004-07-15 07:05:55 51°13.536 2°56.19 2.8 129 16.9 101580 95
2004-07-15 07:06:00 51°13.535 2°56.199 1.4 177 16.9 101580 95
2004-07-15 07:06:05 51°13.535 2°56.208 2.6 106 16.9 101580 95
2004-07-15 07:06:11 51°13.536 2°56.218 3.3 173 16.9 101580 95
2004-07-15 07:06:15 51°13.537 2°56.225 3.8 182 16.9 101580 95
2004-07-15 07:06:19 51°13.538 2°56.231 4.1 164 16.9 101580 95
2004-07-15 07:06:25 51°13.539 2°56.239 3.2 201 16.9 101580 95
2004-07-15 07:06:30 51°13.54 2°56.244 2 235 16.9 101580 95
2004-07-15 07:06:35 51°13.541 2°56.247 3.6 223 16.9 101580 95
2004-07-15 07:06:39 51°13.542 2°56.249 3.1 226 16.9 101580 95
2004-07-15 07:06:45 51°13.542 2°56.25 4 214 16.9 101580 95
2004-07-15 07:06:49 51°13.542 2°56.251 3.8 205 16.9 101580 95
2004-07-15 07:06:52 51°13.541 2°56.251 4.6 213 16.9 101580 95
2004-07-15 07:06:59 51°13.541 2°56.249 4.6 202 16.9 101580 95
2004-07-15 07:07:05 51°13.54 2°56.247 5.9 200 16.9 101580 95
2004-07-15 07:07:11 51°13.538 2°56.244 4.7 209 16.9 101580 95
2004-07-15 07:07:16 51°13.537 2°56.242 4.8 205 16.9 101590 95
2004-07-15 07:07:21 51°13.536 2°56.24 4.4 218 16.9 101590 95
2004-07-15 07:07:25 51°13.535 2°56.239 3.7 216 16.9 101590 95
2004-07-15 07:07:31 51°13.535 2°56.238 4.1 233 16.9 101590 95
2004-07-15 07:07:36 51°13.535 2°56.238 3.5 227 16.9 101590 95
2004-07-15 07:07:41 51°13.535 2°56.239 3.4 236 16.9 101590 95
2004-07-15 07:07:45 51°13.536 2°56.241 4.8 213 16.9 101590 95
2004-07-15 07:07:51 51°13.537 2°56.243 5.5 227 16.9 101590 95
2004-07-15 07:07:56 51°13.538 2°56.245 3.9 239 16.9 101590 95
2004-07-15 07:08:01 51°13.54 2°56.248 3.6 239 16.9 101590 95
2004-07-15 07:08:05 51°13.542 2°56.249 4 239 16.9 101590 95
2004-07-15 07:08:11 51°13.544 2°56.251 2.7 256 16.9 101590 95
2004-07-15 07:08:16 51°13.544 2°56.252 4.2 255 16.9 101580 95
2004-07-15 07:08:20 51°13.544 2°56.252 5 235 16.9 101580 95
2004-07-15 07:08:25 51°13.543 2°56.252 3.6 228 16.9 101590 95
2004-07-15 07:08:29 51°13.542 2°56.252 4.7 236 16.9 101590 95
2004-07-15 07:08:35 51°13.54 2°56.252 3.9 250 16.9 101580 95
2004-07-15 07:08:40 51°13.537 2°56.251 5.5 240 16.9 101580 95
2004-07-15 07:08:45 51°13.534 2°56.251 7.4 229 16.9 101580 95
2004-07-15 07:08:51 51°13.531 2°56.25 6.5 234 16.9 101580 95
2004-07-15 07:08:56 51°13.529 2°56.25 6 238 16.9 101580 95
2004-07-15 07:09:01 51°13.527 2°56.25 5.4 247 16.9 101580 95
2004-07-15 07:09:05 51°13.527 2°56.25 4.4 266 16.9 101580 95
2004-07-15 07:09:11 51°13.528 2°56.25 6.5 268 16.9 101580 95
2004-07-15 07:09:16 51°13.529 2°56.251 5 299 16.9 101590 95
2004-07-15 07:09:21 51°13.531 2°56.251 5.6 292 16.9 101590 95
2004-07-15 07:09:25 51°13.533 2°56.251 5.3 286 16.9 101580 95
2004-07-15 07:09:31 51°13.536 2°56.251 5.2 284 16.9 101580 95
2004-07-15 07:09:36 51°13.537 2°56.251 4.6 281 16.9 101580 95
2004-07-15 07:09:41 51°13.539 2°56.252 4.4 264 16.9 101580 95
2004-07-15 07:09:45 51°13.539 2°56.252 5.2 266 16.9 101580 95
2004-07-15 07:09:51 51°13.539 2°56.253 4.9 269 16.9 101580 95
2004-07-15 07:09:55 51°13.538 2°56.254 4.4 270 16.9 101580 95
2004-07-15 07:09:59 51°13.537 2°56.256 3.5 282 16.9 101580 95
2004-07-15 07:10:05 51°13.534 2°56.258 3.1 243 16.9 101580 95
2004-07-15 07:10:11 51°13.531 2°56.26 4.4 239 16.9 101580 95
2004-07-15 07:10:16 51°13.529 2°56.262 3.3 256 16.9 101580 95
2004-07-15 07:10:21 51°13.527 2°56.263 2.3 252 16.9 101580 95
2004-07-15 07:10:25 51°13.525 2°56.265 3.5 239 16.9 101580 95
2004-07-15 07:10:31 51°13.523 2°56.266 4 272 16.9 101580 95
2004-07-15 07:10:36 51°13.521 2°56.267 3.7 272 16.9 101580 95
2004-07-15 07:10:40 51°13.521 2°56.268 3.9 281 16.9 101580 95
2004-07-15 07:10:45 51°13.521 2°56.268 3.3 303 16.9 101580 95
2004-07-15 07:10:51 51°13.523 2°56.267 3.7 311 16.9 101580 95
2004-07-15 07:10:55 51°13.525 2°56.265 4.3 315 16.9 101580 95
2004-07-15 07:11:00 51°13.527 2°56.262 4.1 334 16.9 101580 95
2004-07-15 07:11:05 51°13.53 2°56.257 4.7 342 16.9 101580 95
2004-07-15 07:11:09 51°13.533 2°56.253 7.2 321 16.9 101580 95
2004-07-15 07:11:16 51°13.536 2°56.244 4.4 2 16.9 101580 95
2004-07-15 07:11:20 51°13.538 2°56.24 4.1 351 16.9 101580 95
2004-07-15 07:11:25 51°13.54 2°56.234 5.4 352 16.9 101580 95
2004-07-15 07:11:29 51°13.541 2°56.229 6.8 343 16.9 101580 95
2004-07-15 07:11:35 51°13.543 2°56.223 5.9 319 16.9 101580 95
2004-07-15 07:11:39 51°13.544 2°56.218 5.2 334 16.9 101580 95
2004-07-15 07:11:45 51°13.545 2°56.21 6.7 336 16.9 101580 95
2004-07-15 07:11:49 51°13.546 2°56.205 6.7 330 16.9 101580 95
2004-07-15 07:11:55 51°13.548 2°56.199 5.1 339 16.9 101580 95
2004-07-15 07:12:00 51°13.549 2°56.193 6.9 333 16.9 101580 95
2004-07-15 07:12:05 51°13.551 2°56.187 7.3 346 16.9 101580 95
2004-07-15 07:12:10 51°13.552 2°56.181 6.2 343 16.9 101580 95
2004-07-15 07:12:15 51°13.553 2°56.175 4.7 343 16.9 101570 95
2004-07-15 07:12:20 51°13.554 2°56.169 5.3 330 16.9 101570 95
2004-07-15 07:12:23 51°13.555 2°56.165 5.6 332 16.9 101570 95
2004-07-15 07:12:31 51°13.557 2°56.156 5.6 334 16.9 101570 95
2004-07-15 07:12:35 51°13.558 2°56.151 4.7 329 16.9 101570 95
2004-07-15 07:12:40 51°13.56 2°56.146 5 340 16.9 101570 95
2004-07-15 07:12:45 51°13.562 2°56.14 4.8 330 16.9 101570 95
2004-07-15 07:12:49 51°13.563 2°56.136 2.6 332 16.9 101570 95
2004-07-15 07:12:55 51°13.565 2°56.129 3.6 1 16.9 101570 95
2004-07-15 07:12:59 51°13.566 2°56.125 4.5 344 16.9 101570 95
2004-07-15 07:13:03 51°13.568 2°56.121 4.3 354 16.9 101570 95
2004-07-15 07:13:11 51°13.57 2°56.111 4 343 16.9 101570 95
2004-07-15 07:13:15 51°13.572 2°56.107 4.1 349 16.9 101580 95
2004-07-15 07:13:20 51°13.574 2°56.102 3.2 348 16.9 101580 95
2004-07-15 07:13:25 51°13.575 2°56.097 4 357 16.9 101580 95
2004-07-15 07:13:30 51°13.577 2°56.092 4.9 336 16.9 101580 95
2004-07-15 07:13:35 51°13.579 2°56.086 6.1 338 16.9 101570 95
2004-07-15 07:13:40 51°13.581 2°56.081 3.8 341 16.9 101570 95
2004-07-15 07:13:45 51°13.582 2°56.076 4.1 351 16.9 101580 95
2004-07-15 07:13:49 51°13.584 2°56.072 3.5 353 16.9 101580 95
2004-07-15 07:13:55 51°13.586 2°56.066 4.7 342 16.9 101570 95
2004-07-15 07:14:00 51°13.588 2°56.061 5.4 334 16.9 101570 95
2004-07-15 07:14:05 51°13.59 2°56.055 5.4 334 16.9 101570 95
2004-07-15 07:14:08 51°13.591 2°56.052 4.7 325 16.9 101570 95
2004-07-15 07:14:15 51°13.594 2°56.045 4.6 4 16.9 101570 95
2004-07-15 07:14:21 51°13.596 2°56.039 6.8 345 16.9 101570 95
2004-07-15 07:14:24 51°13.597 2°56.036 6 333 16.9 101570 95
2004-07-15 07:14:31 51°13.6 2°56.03 5.9 341 16.9 101570 95
2004-07-15 07:14:35 51°13.602 2°56.026 4.6 338 16.9 101570 95
2004-07-15 07:14:40 51°13.604 2°56.021 3.9 226 16.9 101570 95
2004-07-15 07:14:45 51°13.606 2°56.017 2.7 352 16.9 101570 95
2004-07-15 07:14:50 51°13.608 2°56.012 5 332 16.9 101570 95
2004-07-15 07:14:55 51°13.611 2°56.007 5.2 341 16.9 101570 95
2004-07-15 07:15:00 51°13.613 2°56.003 5.1 318 16.9 101570 95
2004-07-15 07:15:05 51°13.615 2°55.998 6.2 315 16.9 101570 95
2004-07-15 07:15:09 51°13.616 2°55.994 4.3 317 16.9 101570 95
2004-07-15 07:15:15 51°13.619 2°55.987 5 338 16.9 101570 95
2004-07-15 07:15:20 51°13.621 2°55.982 6.7 339 16.9 101570 95
2004-07-15 07:15:25 51°13.623 2°55.977 6.2 331 16.9 101580 95
2004-07-15 07:15:29 51°13.625 2°55.973 5.2 303 16.9 101580 95
2004-07-15 07:15:35 51°13.627 2°55.968 4.4 329 16.9 101570 95
2004-07-15 07:15:40 51°13.629 2°55.964 3.5 332 16.9 101570 95
2004-07-15 07:15:45 51°13.632 2°55.959 4.5 320 16.9 101570 95
2004-07-15 07:15:50 51°13.634 2°55.955 5.6 328 16.9 101570 95
2004-07-15 07:15:55 51°13.636 2°55.95 4.8 331 16.9 101570 95
2004-07-15 07:16:00 51°13.639 2°55.945 5.1 327 16.9 101570 95
2004-07-15 07:16:04 51°13.641 2°55.941 4.2 326 16.9 101570 95
2004-07-15 07:16:09 51°13.643 2°55.936 3.9 356 16.9 101570 95
2004-07-15 07:16:15 51°13.646 2°55.929 3.6 355 16.9 101570 95
2004-07-15 07:16:20 51°13.649 2°55.923 2.9 357 16.9 101570 95
2004-07-15 07:16:25 51°13.652 2°55.917 3.6 341 16.9 101580 95
2004-07-15 07:16:29 51°13.654 2°55.911 4.2 354 16.9 101580 95
2004-07-15 07:16:35 51°13.657 2°55.902 3.8 348 16.9 101570 95
2004-07-15 07:16:40 51°13.66 2°55.895 4 347 16.9 101570 95
2004-07-15 07:16:44 51°13.662 2°55.888 3.7 344 16.9 101570 95
2004-07-15 07:16:49 51°13.665 2°55.88 4 326 16.9 101570 95
2004-07-15 07:16:55 51°13.669 2°55.869 4.2 326 16.9 101570 95
2004-07-15 07:17:00 51°13.673 2°55.861 5.1 346 16.9 101570 95
2004-07-15 07:17:05 51°13.677 2°55.853 5.1 338 16.9 101570 95
2004-07-15 07:17:10 51°13.681 2°55.843 4.5 333 16.9 101570 95
2004-07-15 07:17:15 51°13.686 2°55.833 5.2 322 16.9 101570 95
2004-07-15 07:17:19 51°13.689 2°55.825 4.4 339 16.9 101570 95
2004-07-15 07:17:25 51°13.695 2°55.812 5.2 334 17 101570 95
2004-07-15 07:17:30 51°13.7 2°55.801 4.6 348 17 101570 95
2004-07-15 07:17:35 51°13.706 2°55.79 5.2 345 16.9 101570 95
2004-07-15 07:17:39 51°13.71 2°55.781 4.9 339 16.9 101570 95
2004-07-15 07:17:45 51°13.717 2°55.767 4.5 329 16.9 101570 95
2004-07-15 07:17:51 51°13.725 2°55.753 5.7 14 16.9 101570 95
2004-07-15 07:17:55 51°13.73 2°55.744 5.9 358 17 101570 95
2004-07-15 07:17:59 51°13.735 2°55.735 7.2 335 17 101570 95
2004-07-15 07:18:05 51°13.744 2°55.722 5.2 329 16.9 101580 95
2004-07-15 07:18:09 51°13.75 2°55.713 4.1 32 16.9 101580 95
2004-07-15 07:18:15 51°13.759 2°55.7 3 324 17 101580 95
2004-07-15 07:18:20 51°13.767 2°55.689 5.5 359 17 101580 95
2004-07-15 07:18:25 51°13.775 2°55.679 5.9 335 16.9 101570 95
2004-07-15 07:18:31 51°13.784 2°55.667 6.6 343 16.9 101570 95
2004-07-15 07:18:35 51°13.791 2°55.659 5.3 346 17 101570 95
2004-07-15 07:18:40 51°13.8 2°55.649 4.1 5 17 101570 95
2004-07-15 07:18:45 51°13.809 2°55.641 4 333 16.9 101570 95
2004-07-15 07:18:49 51°13.816 2°55.634 5.7 349 16.9 101570 95
2004-07-15 07:18:55 51°13.827 2°55.624 5.3 335 16.9 101570 95
2004-07-15 07:19:00 51°13.837 2°55.616 5.9 332 16.9 101570 95
2004-07-15 07:19:05 51°13.847 2°55.609 5.9 319 17 101570 95
2004-07-15 07:19:09 51°13.856 2°55.604 5.1 348 17 101570 95
2004-07-15 07:19:15 51°13.868 2°55.595 4.3 351 17 101570 95
2004-07-15 07:19:20 51°13.879 2°55.588 5.6 322 17 101570 95
2004-07-15 07:19:25 51°13.89 2°55.58 3.4 324 17 101570 95
2004-07-15 07:19:29 51°13.898 2°55.574 4.2 332 17 101570 95
2004-07-15 07:19:35 51°13.911 2°55.566 4.2 358 17 101570 95
2004-07-15 07:19:39 51°13.92 2°55.56 4.9 343 17 101570 95
2004-07-15 07:19:45 51°13.933 2°55.551 5.3 333 16.9 101570 95
2004-07-15 07:19:50 51°13.944 2°55.543 6 341 16.9 101570 95
2004-07-15 07:19:55 51°13.956 2°55.536 4.7 356 16.9 101580 95
2004-07-15 07:19:59 51°13.965 2°55.529 5.4 327 16.9 101580 95
2004-07-15 07:20:05 51°13.978 2°55.521 5.5 322 17 101580 95
2004-07-15 07:20:07 51°13.983 2°55.518 6 340 17 101580 95
2004-07-15 07:20:15 51°14.001 2°55.506 2.2 326 17 101570 95
2004-07-15 07:20:20 51°14.012 2°55.498 6.1 338 17 101570 95
2004-07-15 07:20:25 51°14.023 2°55.49 6.8 330 16.9 101570 95
2004-07-15 07:20:30 51°14.035 2°55.482 6.3 330 16.9 101570 95
2004-07-15 07:20:35 51°14.046 2°55.475 5.5 319 17 101580 95
2004-07-15 07:20:40 51°14.058 2°55.468 3.9 338 17 101580 95
2004-07-15 07:20:44 51°14.067 2°55.462 5.4 344 17 101570 95
2004-07-15 07:20:49 51°14.079 2°55.454 5.7 351 17 101570 95
2004-07-15 07:20:55 51°14.094 2°55.443 5.6 351 16.9 101570 95
2004-07-15 07:20:59 51°14.104 2°55.436 7.2 354 16.9 101570 95
2004-07-15 07:21:03 51°14.114 2°55.428 8.9 333 17 101580 95
2004-07-15 07:21:09 51°14.13 2°55.416 8 340 17 101580 95
2004-07-15 07:21:15 51°14.145 2°55.402 7.7 335 17 101580 95
2004-07-15 07:21:20 51°14.159 2°55.391 7.2 341 17 101580 95
2004-07-15 07:21:25 51°14.172 2°55.379 6.8 339 16.9 101580 95
2004-07-15 07:21:29 51°14.182 2°55.369 9.3 338 16.9 101580 95
2004-07-15 07:21:35 51°14.196 2°55.352 10.8 333 17 101570 95
2004-07-15 07:21:39 51°14.206 2°55.341 10.5 332 17 101570 95
2004-07-15 07:21:45 51°14.22 2°55.321 10.8 335 17 101560 95
2004-07-15 07:21:51 51°14.233 2°55.302 9 335 17 101560 95
2004-07-15 07:21:55 51°14.241 2°55.288 11.1 333 17 101570 95
2004-07-15 07:21:59 51°14.25 2°55.274 11 332 17 101570 95
2004-07-15 07:22:05 51°14.262 2°55.253 10.4 339 17 101570 95
2004-07-15 07:22:11 51°14.274 2°55.231 11.5 332 17 101570 95
2004-07-15 07:22:15 51°14.283 2°55.216 12.1 341 17 101570 95
2004-07-15 07:22:19 51°14.29 2°55.201 9.1 341 17 101570 95
2004-07-15 07:22:25 51°14.302 2°55.179 10.1 336 17 101570 95
2004-07-15 07:22:29 51°14.31 2°55.163 8.8 346 17 101570 95
2004-07-15 07:22:35 51°14.322 2°55.14 7.9 331 17 101570 95
2004-07-15 07:22:39 51°14.33 2°55.125 10.2 330 17 101570 95
2004-07-15 07:22:45 51°14.342 2°55.103 11.4 331 16.9 101570 95
2004-07-15 07:22:50 51°14.353 2°55.085 11 333 16.9 101570 95
2004-07-15 07:22:55 51°14.363 2°55.067 11.9 332 17 101570 95
2004-07-15 07:23:00 51°14.374 2°55.048 12.7 332 17 101570 95
2004-07-15 07:23:05 51°14.385 2°55.028 12.2 332 16.9 101570 95
2004-07-15 07:23:08 51°14.391 2°55.015 12.5 335 16.9 101570 95
2004-07-15 07:23:15 51°14.406 2°54.984 12.2 337 17 101560 95
2004-07-15 07:23:20 51°14.417 2°54.962 12.5 336 17 101560 95
2004-07-15 07:23:25 51°14.428 2°54.939 12.3 335 16.9 101550 95
2004-07-15 07:23:30 51°14.439 2°54.917 11.1 336 16.9 101550 95
2004-07-15 07:23:35 51°14.451 2°54.895 12.4 336 17 101550 95
2004-07-15 07:23:40 51°14.463 2°54.873 13.3 336 17 101550 95
2004-07-15 07:23:45 51°14.475 2°54.851 12.3 334 17 101550 95
2004-07-15 07:23:48 51°14.482 2°54.838 12.8 334 17 101550 95
2004-07-15 07:23:55 51°14.499 2°54.807 12.6 334 17 101550 95
2004-07-15 07:24:00 51°14.511 2°54.785 13.8 335 17 101550 95
2004-07-15 07:24:05 51°14.522 2°54.762 12.8 337 17 101550 95
2004-07-15 07:24:09 51°14.531 2°54.743 12.6 336 17 101550 95
2004-07-15 07:24:15 51°14.543 2°54.713 12.9 341 16.9 101540 95
2004-07-15 07:24:19 51°14.55 2°54.693 13.2 342 16.9 101540 95
2004-07-15 07:24:25 51°14.561 2°54.662 12.6 343 16.9 101550 95
2004-07-15 07:24:28 51°14.566 2°54.646 13.5 341 16.9 101550 95
2004-07-15 07:24:35 51°14.578 2°54.61 13.5 342 16.9 101550 95
2004-07-15 07:24:40 51°14.587 2°54.584 14 340 16.9 101550 95
2004-07-15 07:24:45 51°14.595 2°54.557 13.9 341 16.9 101550 95
2004-07-15 07:24:49 51°14.602 2°54.536 12.9 341 16.9 101550 95
2004-07-15 07:24:55 51°14.612 2°54.504 13.8 342 16.9 101550 95
2004-07-15 07:24:59 51°14.619 2°54.483 12.8 342 16.9 101550 95
2004-07-15 07:25:05 51°14.629 2°54.452 13.1 342 16.9 101550 95
2004-07-15 07:25:10 51°14.638 2°54.425 13.3 342 16.9 101550 95
2004-07-15 07:25:15 51°14.647 2°54.399 13.7 341 16.9 101540 95
2004-07-15 07:25:20 51°14.656 2°54.373 13 340 16.9 101540 95
2004-07-15 07:25:23 51°14.661 2°54.357 13.2 343 16.9 101540 95
2004-07-15 07:25:29 51°14.672 2°54.326 12.6 344 16.9 101540 95
2004-07-15 07:25:35 51°14.682 2°54.294 13.1 342 16.9 101540 95
2004-07-15 07:25:40 51°14.691 2°54.268 12.9 343 16.9 101540 95
2004-07-15 07:25:45 51°14.7 2°54.242 12.5 346 16.9 101550 95
2004-07-15 07:25:47 51°14.704 2°54.232 12.8 342 16.9 101550 95
2004-07-15 07:25:55 51°14.72 2°54.191 13.2 341 16.9 101540 95
2004-07-15 07:26:00 51°14.728 2°54.165 13.5 341 16.9 101540 95
2004-07-15 07:26:03 51°14.733 2°54.149 14.1 342 16.9 101540 95
2004-07-15 07:26:11 51°14.75 2°54.108 14.1 341 16.9 101540 95
2004-07-15 07:26:15 51°14.758 2°54.087 13.9 341 16.9 101540 95
2004-07-15 07:26:20 51°14.767 2°54.062 14 339 16.9 101540 95
2004-07-15 07:26:25 51°14.776 2°54.036 13.8 341 16.9 101540 95
2004-07-15 07:26:31 51°14.786 2°54.005 12.5 343 16.9 101540 95
2004-07-15 07:26:35 51°14.793 2°53.984 13.2 346 16.9 101540 95
2004-07-15 07:26:40 51°14.801 2°53.958 13 343 16.9 101540 95
2004-07-15 07:26:45 51°14.81 2°53.932 13 343 16.9 101540 95
2004-07-15 07:26:51 51°14.82 2°53.901 12.9 343 16.9 101540 95
2004-07-15 07:26:55 51°14.827 2°53.88 12.8 343 16.9 101550 95
2004-07-15 07:27:00 51°14.835 2°53.853 13.5 339 16.9 101550 95
2004-07-15 07:27:05 51°14.844 2°53.826 14.1 342 16.9 101540 95
2004-07-15 07:27:10 51°14.853 2°53.801 12.8 341 16.9 101540 95
2004-07-15 07:27:15 51°14.863 2°53.775 13.3 338 16.9 101550 95
2004-07-15 07:27:19 51°14.87 2°53.754 12.8 340 16.9 101550 95
2004-07-15 07:27:24 51°14.877 2°53.729 13.2 343 16.9 101550 95
2004-07-15 07:27:30 51°14.886 2°53.697 13.6 341 16.9 101550 95
2004-07-15 07:27:35 51°14.896 2°53.671 13 343 16.9 101550 95
2004-07-15 07:27:40 51°14.905 2°53.646 12.1 341 16.9 101550 95
2004-07-15 07:27:43 51°14.911 2°53.63 12.8 340 16.9 101550 95
2004-07-15 07:27:50 51°14.924 2°53.594 12.5 343 16.9 101550 95
2004-07-15 07:27:55 51°14.932 2°53.569 13 342 16.9 101550 95
2004-07-15 07:27:59 51°14.939 2°53.548 12.2 341 16.9 101550 95
2004-07-15 07:28:05 51°14.949 2°53.517 13 343 16.9 101550 95
2004-07-15 07:28:11 51°14.959 2°53.486 12.7 341 16.9 101550 95
2004-07-15 07:28:15 51°14.966 2°53.465 12.6 343 16.9 101550 95
2004-07-15 07:28:20 51°14.975 2°53.439 12.7 342 16.9 101550 95
2004-07-15 07:28:25 51°14.983 2°53.412 13.1 339 16.9 101560 95
2004-07-15 07:28:29 51°14.99 2°53.391 13.2 340 16.9 101560 95
2004-07-15 07:28:35 51°15.001 2°53.36 13.5 344 16.9 101550 95
2004-07-15 07:28:40 51°15.009 2°53.334 12.6 343 16.9 101550 95
2004-07-15 07:28:45 51°15.018 2°53.308 12 344 16.9 101550 95
2004-07-15 07:28:50 51°15.027 2°53.281 12.4 344 16.9 101550 95
2004-07-15 07:28:53 51°15.032 2°53.266 12.7 342 16.9 101550 95
2004-07-15 07:29:00 51°15.044 2°53.229 13.6 340 16.9 101550 95
2004-07-15 07:29:05 51°15.053 2°53.203 12.8 341 16.9 101550 95
2004-07-15 07:29:10 51°15.061 2°53.177 13.6 340 16.9 101550 95
2004-07-15 07:29:15 51°15.07 2°53.151 12.5 340 16.9 101550 95
2004-07-15 07:29:20 51°15.079 2°53.125 12.4 343 16.9 101550 95
2004-07-15 07:29:25 51°15.088 2°53.099 12.6 344 16.9 101550 95
2004-07-15 07:29:28 51°15.093 2°53.083 13.2 344 16.9 101550 95
2004-07-15 07:29:35 51°15.105 2°53.046 13.7 341 16.9 101540 95
2004-07-15 07:29:40 51°15.114 2°53.02 13.6 339 16.9 101540 95
2004-07-15 07:29:45 51°15.122 2°52.994 13.1 340 16.9 101540 95
2004-07-15 07:29:49 51°15.129 2°52.973 12 347 16.9 101540 95
2004-07-15 07:29:55 51°15.14 2°52.941 12.7 340 16.9 101540 95
2004-07-15 07:30:00 51°15.148 2°52.915 13.4 340 16.9 101540 95
2004-07-15 07:30:05 51°15.157 2°52.889 13.4 343 16.9 101540 95
2004-07-15 07:30:09 51°15.164 2°52.867 13.4 342 16.9 101540 95
2004-07-15 07:30:15 51°15.173 2°52.835 13.3 345 16.9 101540 95
2004-07-15 07:30:19 51°15.179 2°52.812 13.5 341 16.9 101540 95
2004-07-15 07:30:25 51°15.186 2°52.779 13.6 349 16.9 101540 95
2004-07-15 07:30:29 51°15.191 2°52.756 13 347 16.9 101540 95
2004-07-15 07:30:35 51°15.198 2°52.722 13.9 346 16.9 101530 95
2004-07-15 07:30:40 51°15.203 2°52.693 13.7 349 16.9 101530 95
2004-07-15 07:30:44 51°15.208 2°52.67 14 350 16.9 101540 95
2004-07-15 07:30:51 51°15.215 2°52.629 13.4 347 16.9 101540 95
2004-07-15 07:30:55 51°15.219 2°52.606 14.2 348 16.9 101550 95
2004-07-15 07:31:00 51°15.225 2°52.577 14.5 347 16.9 101550 95
2004-07-15 07:31:05 51°15.23 2°52.548 14.5 347 16.9 101540 95
2004-07-15 07:31:09 51°15.234 2°52.525 13.9 345 16.9 101540 95
2004-07-15 07:31:15 51°15.24 2°52.49 13.6 348 16.9 101540 95
2004-07-15 07:31:19 51°15.245 2°52.467 14.8 345 16.9 101540 95
2004-07-15 07:31:24 51°15.25 2°52.438 14.1 342 16.9 101540 95
2004-07-15 07:31:29 51°15.255 2°52.409 13.6 346 16.9 101540 95
2004-07-15 07:31:34 51°15.26 2°52.38 13.3 345 16.9 101530 95
2004-07-15 07:31:40 51°15.266 2°52.345 14.2 349 16.9 101530 95
2004-07-15 07:31:43 51°15.269 2°52.327 14.2 347 16.9 101530 95
2004-07-15 07:31:50 51°15.275 2°52.286 14.6 349 16.9 101530 95
2004-07-15 07:31:55 51°15.279 2°52.256 13.8 349 16.9 101530 95
2004-07-15 07:31:59 51°15.281 2°52.232 14.3 352 16.9 101530 95
2004-07-15 07:32:05 51°15.285 2°52.196 13.8 352 16.9 101540 95
2004-07-15 07:32:08 51°15.286 2°52.177 14.2 349 16.9 101540 95
2004-07-15 07:32:15 51°15.29 2°52.135 14.5 350 16.9 101530 95
2004-07-15 07:32:19 51°15.292 2°52.111 13.5 348 16.9 101530 95
2004-07-15 07:32:24 51°15.294 2°52.08 13.9 349 16.9 101540 95
2004-07-15 07:32:30 51°15.298 2°52.044 14.2 351 16.9 101540 95
2004-07-15 07:32:35 51°15.3 2°52.013 13.7 352 16.9 101530 95
2004-07-15 07:32:40 51°15.303 2°51.983 14.2 352 16.9 101530 95
2004-07-15 07:32:44 51°15.305 2°51.958 15 353 16.8 101540 95
2004-07-15 07:32:49 51°15.307 2°51.928 14.6 354 16.8 101540 95
2004-07-15 07:32:55 51°15.308 2°51.891 14.2 358 16.9 101540 95
2004-07-15 07:33:00 51°15.308 2°51.86 13.5 358 16.9 101540 95
2004-07-15 07:33:05 51°15.308 2°51.829 14 357 16.9 101540 95
2004-07-15 07:33:11 51°15.307 2°51.792 13.8 357 16.9 101540 95
2004-07-15 07:33:15 51°15.306 2°51.767 14.4 358 16.9 101520 95
2004-07-15 07:33:20 51°15.305 2°51.736 14.2 360 16.9 101520 95
2004-07-15 07:33:25 51°15.304 2°51.705 14.6 359 16.9 101540 95
2004-07-15 07:33:29 51°15.303 2°51.68 14.3 358 16.9 101540 95
2004-07-15 07:33:35 51°15.302 2°51.643 14.4 358 16.9 101540 95
2004-07-15 07:33:40 51°15.3 2°51.612 14.5 1 16.9 101540 95
2004-07-15 07:33:45 51°15.297 2°51.582 14 2 16.9 101540 95
2004-07-15 07:33:51 51°15.293 2°51.545 13.7 2 16.9 101540 95
2004-07-15 07:33:55 51°15.29 2°51.521 13.6 5 16.9 101550 95
2004-07-15 07:34:00 51°15.286 2°51.49 14 3 16.9 101550 95
2004-07-15 07:34:05 51°15.282 2°51.46 13.8 4 16.9 101530 95
2004-07-15 07:34:09 51°15.279 2°51.435 15.8 2 16.9 101530 95
2004-07-15 07:34:15 51°15.274 2°51.399 15 4 16.9 101550 95
2004-07-15 07:34:20 51°15.269 2°51.368 14.6 4 16.9 101550 95
2004-07-15 07:34:25 51°15.265 2°51.338 15.1 3 16.9 101550 95
2004-07-15 07:34:30 51°15.261 2°51.307 14.8 1 16.9 101550 95
2004-07-15 07:34:35 51°15.256 2°51.277 15.2 2 16.9 101550 95
2004-07-15 07:34:40 51°15.252 2°51.246 14.8 2 16.9 101550 95
2004-07-15 07:34:44 51°15.248 2°51.222 15.6 4 16.9 101550 95
2004-07-15 07:34:49 51°15.244 2°51.191 14.6 358 16.9 101550 95
2004-07-15 07:34:55 51°15.239 2°51.154 14.5 1 16.9 101550 95
2004-07-15 07:35:00 51°15.235 2°51.124 14.4 2 16.9 101550 95
2004-07-15 07:35:05 51°15.232 2°51.093 14.4 4 16.9 101550 95
2004-07-15 07:35:10 51°15.229 2°51.062 14.1 360 16.9 101550 95
2004-07-15 07:35:15 51°15.226 2°51.031 14.2 359 16.9 101550 95
2004-07-15 07:35:20 51°15.223 2°51 14 1 16.9 101550 95
2004-07-15 07:35:25 51°15.219 2°50.97 14.3 357 16.8 101540 95
2004-07-15 07:35:29 51°15.217 2°50.945 13.6 2 16.8 101540 95
2004-07-15 07:35:35 51°15.213 2°50.908 13.8 2 16.9 101550 95
2004-07-15 07:35:40 51°15.21 2°50.877 14.3   16.9 101550 95
2004-07-15 07:35:44 51°15.207 2°50.853 13.8 359 16.9 101550 95
2004-07-15 07:35:50 51°15.203 2°50.816 14.4 6 16.9 101550 95
2004-07-15 07:35:55 51°15.2 2°50.785 13.8 2 16.9 101550 95
2004-07-15 07:36:00 51°15.197 2°50.754 13.4 4 16.9 101550 95
2004-07-15 07:36:05 51°15.194 2°50.723 13.7 1 16.9 101540 95
2004-07-15 07:36:11 51°15.191 2°50.686 13.6 1 16.9 101540 95
2004-07-15 07:36:15 51°15.189 2°50.661 13.9 1 16.9 101540 95
2004-07-15 07:36:20 51°15.187 2°50.631 13.7 360 16.9 101540 95
2004-07-15 07:36:25 51°15.184 2°50.6 13.5 4 16.9 101550 95
2004-07-15 07:36:31 51°15.181 2°50.563 13.7 4 16.9 101550 95
2004-07-15 07:36:35 51°15.178 2°50.538 14.7 2 16.9 101550 95
2004-07-15 07:36:39 51°15.176 2°50.514 14.8 359 16.9 101550 95
2004-07-15 07:36:45 51°15.173 2°50.477 14.9 359 16.9 101560 95
2004-07-15 07:36:51 51°15.169 2°50.44 13.8 2 16.9 101560 95
2004-07-15 07:36:55 51°15.167 2°50.415 14.5   16.9 101550 95
2004-07-15 07:37:00 51°15.164 2°50.385 13.9   16.9 101550 95
2004-07-15 07:37:05 51°15.161 2°50.354 12.8 4 16.9 101540 95
2004-07-15 07:37:09 51°15.159 2°50.329 13.3 3 16.9 101540 95
2004-07-15 07:37:12 51°15.157 2°50.311 14.2   16.9 101540 95
2004-07-15 07:37:19 51°15.153 2°50.268 13.6   16.9 101540 95
2004-07-15 07:37:25 51°15.15 2°50.231 13.2 3 16.9 101550 95
2004-07-15 07:37:30 51°15.147 2°50.2 13.3 1 16.9 101550 95
2004-07-15 07:37:35 51°15.145 2°50.169 13.4 1 16.9 101550 95
2004-07-15 07:37:39 51°15.143 2°50.145 14.6 2 16.9 101550 95
2004-07-15 07:37:45 51°15.139 2°50.108 14.7 2 16.9 101560 95
2004-07-15 07:37:49 51°15.137 2°50.083 14.8 2 16.9 101560 95
2004-07-15 07:37:55 51°15.134 2°50.047 13.3 3 16.9 101550 95
2004-07-15 07:38:00 51°15.131 2°50.016 15.8 4 16.9 101550 95
2004-07-15 07:38:05 51°15.127 2°49.986 14.9 3 16.9 101540 95
2004-07-15 07:38:09 51°15.125 2°49.962 14.4 3 16.9 101540 95
2004-07-15 07:38:15 51°15.122 2°49.925 14.9 4 16.9 101550 95
2004-07-15 07:38:20 51°15.119 2°49.894 15.2 3 16.9 101550 95
2004-07-15 07:38:25 51°15.116 2°49.863 15 4 16.9 101550 95
2004-07-15 07:38:30 51°15.113 2°49.833 14.2 2 16.9 101550 95
2004-07-15 07:38:35 51°15.111 2°49.802 14.7   16.9 101550 95
2004-07-15 07:38:40 51°15.108 2°49.772 15.2 2 16.9 101550 95
2004-07-15 07:38:45 51°15.106 2°49.741 14.8 2 16.9 101550 95
2004-07-15 07:38:49 51°15.103 2°49.716 14.3 2 16.9 101550 95
2004-07-15 07:38:55 51°15.1 2°49.679 14.5 4 16.8 101540 95
2004-07-15 07:39:00 51°15.098 2°49.649 13.8 3 16.8 101540 95
2004-07-15 07:39:05 51°15.095 2°49.618 14.2 359 16.8 101550 95
2004-07-15 07:39:11 51°15.092 2°49.581 15.6 2 16.8 101550 95
2004-07-15 07:39:15 51°15.09 2°49.556 14.1 1 16.8 101540 95
2004-07-15 07:39:20 51°15.087 2°49.526 15 3 16.8 101540 95
2004-07-15 07:39:25 51°15.084 2°49.495 14.4 2 16.8 101550 95
2004-07-15 07:39:30 51°15.081 2°49.465 14.7 4 16.8 101550 95
2004-07-15 07:39:35 51°15.078 2°49.434 15.7 6 16.8 101550 95
2004-07-15 07:39:39 51°15.076 2°49.41 15.3 4 16.8 101550 95
2004-07-15 07:39:45 51°15.072 2°49.373 14.9 5 16.8 101540 95
2004-07-15 07:39:49 51°15.07 2°49.348 14.5 3 16.8 101540 95
2004-07-15 07:39:55 51°15.066 2°49.311 15 6 16.8 101540 95
2004-07-15 07:39:59 51°15.063 2°49.287 14 4 16.8 101540 95
2004-07-15 07:40:04 51°15.06 2°49.256 15 3 16.8 101550 95
2004-07-15 07:40:10 51°15.056 2°49.22 14.3 2 16.8 101550 95
2004-07-15 07:40:15 51°15.053 2°49.189 14.3 10 16.8 101550 95
2004-07-15 07:40:20 51°15.049 2°49.158 14.6 2 16.8 101550 95
2004-07-15 07:40:25 51°15.046 2°49.128 13.8 2 16.8 101550 95
2004-07-15 07:40:29 51°15.044 2°49.103 14.6 5 16.8 101550 95
2004-07-15 07:40:35 51°15.04 2°49.067 14.4 3 16.8 101550 95
2004-07-15 07:40:39 51°15.037 2°49.042 13.6 5 16.8 101550 95
2004-07-15 07:40:45 51°15.033 2°49.005 14.6 7 16.8 101560 95
2004-07-15 07:40:49 51°15.031 2°48.981 14.4 5 16.8 101560 95
2004-07-15 07:40:55 51°15.027 2°48.944 14.1 4 16.8 101550 95
2004-07-15 07:40:59 51°15.025 2°48.919 14.3 3 16.8 101550 95
2004-07-15 07:41:04 51°15.022 2°48.889 13.2 1 16.8 101550 95
2004-07-15 07:41:10 51°15.018 2°48.852 13.8 4 16.8 101550 95
2004-07-15 07:41:15 51°15.015 2°48.822 13.1 5 16.8 101560 95
2004-07-15 07:41:20 51°15.012 2°48.791 13.4 5 16.8 101560 95
2004-07-15 07:41:25 51°15.008 2°48.761 13.9 5 16.8 101550 95
2004-07-15 07:41:29 51°15.006 2°48.736 14 3 16.8 101550 95
2004-07-15 07:41:35 51°15.002 2°48.699 13.8 3 16.8 101560 95
2004-07-15 07:41:39 51°15 2°48.675 15 3 16.8 101560 95
2004-07-15 07:41:45 51°14.996 2°48.638 13.5 2 16.8 101560 95
2004-07-15 07:41:49 51°14.994 2°48.614 14.9 2 16.8 101560 95
2004-07-15 07:41:55 51°14.991 2°48.577 14.4 4 16.8 101550 95
2004-07-15 07:41:59 51°14.988 2°48.553 15.4 8 16.8 101550 95
2004-07-15 07:42:04 51°14.985 2°48.523 14.7 3 16.8 101550 95
2004-07-15 07:42:10 51°14.981 2°48.486 14.9 5 16.8 101550 95
2004-07-15 07:42:15 51°14.978 2°48.456 14.9 4 16.8 101560 95
2004-07-15 07:42:20 51°14.975 2°48.425 14.6 3 16.8 101560 95
2004-07-15 07:42:25 51°14.971 2°48.395 15.1 3 16.8 101560 95
2004-07-15 07:42:29 51°14.968 2°48.371 14.3 6 16.8 101560 95
2004-07-15 07:42:35 51°14.965 2°48.334 15.5 4 16.8 101550 95
2004-07-15 07:42:39 51°14.962 2°48.31 14.5 4 16.8 101550 95
2004-07-15 07:42:45 51°14.959 2°48.273 13.6 5 16.8 101550 95
2004-07-15 07:42:49 51°14.956 2°48.249 14 4 16.8 101550 95
2004-07-15 07:42:55 51°14.952 2°48.213 14.2 2 16.8 101560 95
2004-07-15 07:42:59 51°14.949 2°48.189 14.7 5 16.8 101560 95
2004-07-15 07:43:04 51°14.946 2°48.159 13.8 5 16.8 101560 95
2004-07-15 07:43:10 51°14.942 2°48.122 14 5 16.8 101560 95
2004-07-15 07:43:15 51°14.939 2°48.092 14.4 4 16.8 101550 95
2004-07-15 07:43:20 51°14.936 2°48.062 14.3 4 16.8 101550 95
2004-07-15 07:43:25 51°14.932 2°48.032 15.1 5 16.8 101560 95
2004-07-15 07:43:29 51°14.93 2°48.007 15 1 16.8 101560 95
2004-07-15 07:43:35 51°14.926 2°47.971 14.2 1 16.8 101550 95
2004-07-15 07:43:39 51°14.924 2°47.947 13.7 4 16.8 101550 95
2004-07-15 07:43:45 51°14.92 2°47.911 15.1 4 16.8 101550 95
2004-07-15 07:43:49 51°14.917 2°47.887 15 358 16.8 101550 95
2004-07-15 07:43:55 51°14.913 2°47.851 14.4 4 16.8 101560 95
2004-07-15 07:43:59 51°14.911 2°47.826 14.7 3 16.8 101560 95
2004-07-15 07:44:04 51°14.908 2°47.796 15 1 16.8 101550 95
2004-07-15 07:44:10 51°14.904 2°47.76 15 3 16.8 101550 95
2004-07-15 07:44:15 51°14.901 2°47.73 15.3 2 16.8 101550 95
2004-07-15 07:44:20 51°14.897 2°47.7 14.6 3 16.8 101550 95
2004-07-15 07:44:25 51°14.894 2°47.67 14.3 5 16.8 101550 95
2004-07-15 07:44:29 51°14.892 2°47.646 14.3 4 16.8 101550 95
2004-07-15 07:44:35 51°14.888 2°47.611 14.3 1 16.8 101550 95
2004-07-15 07:44:40 51°14.885 2°47.581 14.2 3 16.8 101550 95
2004-07-15 07:44:45 51°14.881 2°47.551 14 2 16.8 101550 95
2004-07-15 07:44:51 51°14.878 2°47.515 13.8 4 16.8 101550 95
2004-07-15 07:44:55 51°14.876 2°47.491 14.7 1 16.8 101550 95
2004-07-15 07:45:00 51°14.873 2°47.461 13.9 5 16.8 101550 95
2004-07-15 07:45:05 51°14.87 2°47.431 14.2 7 16.8 101550 95
2004-07-15 07:45:10 51°14.867 2°47.401 13.8 4 16.8 101550 95
2004-07-15 07:45:15 51°14.864 2°47.371 14.2 5 16.8 101550 95
2004-07-15 07:45:20 51°14.861 2°47.341 13.1 4 16.8 101550 95
2004-07-15 07:45:25 51°14.858 2°47.312 14.5 2 16.8 101560 95
2004-07-15 07:45:29 51°14.855 2°47.288 13.9 2 16.8 101560 95
2004-07-15 07:45:35 51°14.852 2°47.252 14.9 2 16.8 101560 95
2004-07-15 07:45:40 51°14.849 2°47.222 14.5 2 16.8 101560 95
2004-07-15 07:45:45 51°14.846 2°47.193 13.6 1 16.8 101550 95
2004-07-15 07:45:49 51°14.844 2°47.169 14.2   16.8 101550 95
2004-07-15 07:45:55 51°14.84 2°47.133 13.8 360 16.8 101550 95
2004-07-15 07:45:59 51°14.838 2°47.109 14.6 2 16.8 101550 95
2004-07-15 07:46:04 51°14.835 2°47.08 13.2 1 16.8 101560 95
2004-07-15 07:46:09 51°14.832 2°47.05 13.3 2 16.8 101560 95
2004-07-15 07:46:15 51°14.828 2°47.014 13.6 2 16.8 101550 95
2004-07-15 07:46:19 51°14.826 2°46.99 13.7 359 16.8 101550 95
2004-07-15 07:46:25 51°14.822 2°46.955 13.7 2 16.8 101540 95
2004-07-15 07:46:30 51°14.819 2°46.925 14.7 2 16.8 101540 95
2004-07-15 07:46:35 51°14.815 2°46.895 15.2 4 16.8 101550 95
2004-07-15 07:46:40 51°14.813 2°46.866 14.7 2 16.8 101550 95
2004-07-15 07:46:45 51°14.809 2°46.836 14.4 1 16.8 101550 95
2004-07-15 07:46:50 51°14.806 2°46.807 14.3 1 16.8 101550 95
2004-07-15 07:46:55 51°14.803 2°46.777 14.8 2 16.8 101550 95
2004-07-15 07:47:00 51°14.8 2°46.747 14.4 1 16.8 101550 95
2004-07-15 07:47:05 51°14.797 2°46.718 14.4 359 16.8 101550 95
2004-07-15 07:47:11 51°14.794 2°46.682 15.1 359 16.8 101550 95
2004-07-15 07:47:15 51°14.791 2°46.659 14.4 4 16.8 101550 95
2004-07-15 07:47:20 51°14.788 2°46.629 15.2 1 16.8 101550 95
2004-07-15 07:47:25 51°14.785 2°46.6 14.8 359 16.8 101550 95
2004-07-15 07:47:29 51°14.783 2°46.576 14 1 16.8 101550 95
2004-07-15 07:47:35 51°14.779 2°46.541 14.1 1 16.8 101550 95
2004-07-15 07:47:40 51°14.776 2°46.511 14.2 2 16.8 101550 95
2004-07-15 07:47:45 51°14.773 2°46.482 12.7 2 16.8 101550 95
2004-07-15 07:47:51 51°14.77 2°46.446 13 4 16.8 101550 95
2004-07-15 07:47:55 51°14.768 2°46.423 12.9 1 16.8 101550 95
2004-07-15 07:48:00 51°14.766 2°46.393 13.4 360 16.8 101550 95
2004-07-15 07:48:05 51°14.763 2°46.363 14.5 360 16.8 101550 95
2004-07-15 07:48:10 51°14.76 2°46.334 14.3 1 16.8 101550 95
2004-07-15 07:48:15 51°14.758 2°46.304 13 3 16.8 101560 95
2004-07-15 07:48:20 51°14.755 2°46.275 13.6 359 16.8 101560 95
2004-07-15 07:48:25 51°14.752 2°46.245 13.3   16.8 101550 95
2004-07-15 07:48:31 51°14.748 2°46.21 14.3 3 16.8 101550 95
2004-07-15 07:48:35 51°14.746 2°46.186 12.6 4 16.8 101550 95
2004-07-15 07:48:40 51°14.742 2°46.157 13.5 360 16.8 101550 95
2004-07-15 07:48:45 51°14.739 2°46.127 13.5 358 16.8 101560 95
2004-07-15 07:48:48 51°14.737 2°46.11 14 1 16.8 101560 95
2004-07-15 07:48:55 51°14.733 2°46.068 13.9 1 16.8 101560 95
2004-07-15 07:49:00 51°14.729 2°46.039 13.5 357 16.8 101560 95
2004-07-15 07:49:05 51°14.727 2°46.009 12.8 359 16.8 101560 95
2004-07-15 07:49:10 51°14.724 2°45.979 13.5 360 16.8 101560 95
2004-07-15 07:49:15 51°14.721 2°45.95 14 358 16.8 101550 95
2004-07-15 07:49:19 51°14.719 2°45.926 13.2 360 16.8 101550 95
2004-07-15 07:49:25 51°14.716 2°45.89 13.7   16.9 101560 95
2004-07-15 07:49:31 51°14.713 2°45.854 14 2 16.9 101560 95
2004-07-15 07:49:35 51°14.711 2°45.83 13.8   16.8 101560 95
2004-07-15 07:49:40 51°14.709 2°45.8 13.7   16.8 101560 95
2004-07-15 07:49:45 51°14.705 2°45.77 14.3 2 16.9 101570 95
2004-07-15 07:49:50 51°14.702 2°45.74 13.8 359 16.9 101570 95
2004-07-15 07:49:55 51°14.699 2°45.71 13.3 1 16.8 101550 95
2004-07-15 07:49:59 51°14.697 2°45.686 13.4 3 16.8 101550 95
2004-07-15 07:50:05 51°14.693 2°45.65 14.5 356 16.8 101550 95
2004-07-15 07:50:09 51°14.69 2°45.626 14.5 358 16.8 101550 95
2004-07-15 07:50:15 51°14.686 2°45.589 13.8 359 16.8 101560 95
2004-07-15 07:50:19 51°14.683 2°45.565 13.9 356 16.8 101560 95
2004-07-15 07:50:25 51°14.679 2°45.529 15   16.8 101560 95
2004-07-15 07:50:31 51°14.676 2°45.492 14.8 1 16.8 101560 95
2004-07-15 07:50:35 51°14.673 2°45.468 14.3 3 16.8 101560 95
2004-07-15 07:50:39 51°14.671 2°45.444 13.7   16.8 101560 95
2004-07-15 07:50:45 51°14.667 2°45.408 14.1 359 16.8 101560 95
2004-07-15 07:50:49 51°14.664 2°45.383 14.4 3 16.8 101560 95
2004-07-15 07:50:55 51°14.66 2°45.347 14.5 1 16.8 101560 95
2004-07-15 07:50:59 51°14.658 2°45.323 14.7 1 16.8 101560 95
2004-07-15 07:51:05 51°14.654 2°45.287 13.9 358 16.8 101550 95
2004-07-15 07:51:08 51°14.652 2°45.269 14.2 1 16.8 101550 95
2004-07-15 07:51:15 51°14.647 2°45.226 15.2 358 16.8 101550 95
2004-07-15 07:51:19 51°14.644 2°45.202 14.8 1 16.8 101550 95
2004-07-15 07:51:25 51°14.64 2°45.166 14.4 1 16.8 101560 95
2004-07-15 07:51:30 51°14.637 2°45.136 14.7 1 16.8 101560 95
2004-07-15 07:51:35 51°14.634 2°45.105 14.3 1 16.8 101550 95
2004-07-15 07:51:40 51°14.63 2°45.075 13.6 360 16.8 101550 95
2004-07-15 07:51:45 51°14.627 2°45.045 13.6 1 16.8 101550 95
2004-07-15 07:51:51 51°14.623 2°45.009 14.7   16.8 101550 95
2004-07-15 07:51:55 51°14.62 2°44.985 14.9 357 16.8 101560 95
2004-07-15 07:52:00 51°14.617 2°44.954 13.6 2 16.8 101560 95
2004-07-15 07:52:05 51°14.614 2°44.924 14.4 358 16.8 101560 95
2004-07-15 07:52:09 51°14.612 2°44.9 14.8 1 16.8 101560 95
2004-07-15 07:52:15 51°14.608 2°44.864 13.7 1 16.8 101550 95
2004-07-15 07:52:20 51°14.605 2°44.833 14.9 358 16.8 101550 95
2004-07-15 07:52:25 51°14.601 2°44.803 13.6 358 16.8 101550 95
2004-07-15 07:52:31 51°14.598 2°44.766 15.2   16.8 101550 95
2004-07-15 07:52:35 51°14.595 2°44.742 14.1 2 16.8 101550 95
2004-07-15 07:52:40 51°14.592 2°44.712 14.1 1 16.8 101550 95
2004-07-15 07:52:45 51°14.588 2°44.682 14.8 359 16.8 101560 95
2004-07-15 07:52:49 51°14.586 2°44.658 14.1 357 16.8 101560 95
2004-07-15 07:52:55 51°14.582 2°44.621 14.5 359 16.8 101560 95
2004-07-15 07:53:00 51°14.578 2°44.591 15 358 16.8 101560 95
2004-07-15 07:53:05 51°14.575 2°44.56 15 358 16.8 101560 95
2004-07-15 07:53:11 51°14.571 2°44.524 14.7 358 16.8 101560 95
2004-07-15 07:53:15 51°14.569 2°44.5 14.7 358 16.8 101550 95
2004-07-15 07:53:20 51°14.566 2°44.469 14.5 359 16.8 101550 95
2004-07-15 07:53:25 51°14.562 2°44.439 15 359 16.8 101560 95
2004-07-15 07:53:30 51°14.559 2°44.409 14.9 357 16.8 101560 95
2004-07-15 07:53:35 51°14.556 2°44.379 14 359 16.8 101550 95
2004-07-15 07:53:39 51°14.553 2°44.354 15.4 358 16.8 101550 95
2004-07-15 07:53:45 51°14.549 2°44.318 13.4 357 16.8 101560 95
2004-07-15 07:53:49 51°14.547 2°44.294 14.4 358 16.8 101560 95
2004-07-15 07:53:55 51°14.543 2°44.257 14.8 356 16.8 101560 95
2004-07-15 07:53:59 51°14.54 2°44.233 14.3 359 16.8 101560 95
2004-07-15 07:54:04 51°14.537 2°44.203 14 355 16.8 101560 95
2004-07-15 07:54:10 51°14.533 2°44.166 14.5 358 16.8 101560 95
2004-07-15 07:54:15 51°14.529 2°44.136 14.8 358 16.8 101560 95
2004-07-15 07:54:20 51°14.527 2°44.106 15.5 2 16.8 101560 95
2004-07-15 07:54:25 51°14.523 2°44.075 14.7 360 16.9 101560 95
2004-07-15 07:54:30 51°14.52 2°44.045 15.3 357 16.9 101560 95
2004-07-15 07:54:35 51°14.518 2°44.015 14.3 359 16.8 101550 95
2004-07-15 07:54:40 51°14.516 2°43.984 12.9 357 16.8 101550 95
2004-07-15 07:54:45 51°14.514 2°43.954 14 354 16.8 101560 95
2004-07-15 07:54:51 51°14.513 2°43.917 15.3 354 16.8 101560 95
2004-07-15 07:54:55 51°14.512 2°43.893 15.4 354 16.8 101550 95
2004-07-15 07:55:00 51°14.511 2°43.863 14 354 16.8 101550 95
2004-07-15 07:55:05 51°14.51 2°43.832 15.1 355 16.8 101550 95
2004-07-15 07:55:08 51°14.509 2°43.814 13.8 359 16.8 101550 95
2004-07-15 07:55:15 51°14.508 2°43.772 14.3 355 16.8 101550 95
2004-07-15 07:55:19 51°14.508 2°43.747 14.5 354 16.8 101550 95
2004-07-15 07:55:25 51°14.506 2°43.711 15.9 354 16.8 101540 95
2004-07-15 07:55:30 51°14.506 2°43.68 15.3 352 16.8 101540 95
2004-07-15 07:55:35 51°14.504 2°43.65 14.9 355 16.8 101540 95
2004-07-15 07:55:40 51°14.503 2°43.62 15.3 354 16.8 101540 95
2004-07-15 07:55:44 51°14.502 2°43.595 14.6 355 16.8 101550 95
2004-07-15 07:55:50 51°14.501 2°43.559 14.8 359 16.8 101550 95
2004-07-15 07:55:55 51°14.5 2°43.528 15.4 359 16.8 101540 95
2004-07-15 07:55:59 51°14.499 2°43.504 14.8 357 16.8 101540 95
2004-07-15 07:56:05 51°14.497 2°43.467 15.1 354 16.8 101530 95
2004-07-15 07:56:09 51°14.496 2°43.443 13.9 355 16.8 101530 95
2004-07-15 07:56:15 51°14.495 2°43.406 14.1 357 16.8 101540 95
2004-07-15 07:56:20 51°14.494 2°43.375 15.5 356 16.8 101540 95
2004-07-15 07:56:25 51°14.493 2°43.344 14.5   16.8 101550 95
2004-07-15 07:56:29 51°14.492 2°43.32 15.7 360 16.8 101550 95
2004-07-15 07:56:35 51°14.491 2°43.283 14.9 354 16.8 101540 95
2004-07-15 07:56:40 51°14.49 2°43.253 14.6 357 16.8 101540 95
2004-07-15 07:56:44 51°14.489 2°43.228 15.1 359 16.8 101560 95
2004-07-15 07:56:49 51°14.488 2°43.198 14.7 356 16.8 101560 95
2004-07-15 07:56:55 51°14.486 2°43.161 15.2 356 16.8 101540 95
2004-07-15 07:57:00 51°14.485 2°43.13 15.5 358 16.8 101540 95
2004-07-15 07:57:05 51°14.484 2°43.1 15.6 354 16.8 101550 95
2004-07-15 07:57:11 51°14.483 2°43.063 15.6 360 16.8 101550 95
2004-07-15 07:57:15 51°14.482 2°43.038 14.9 353 16.8 101540 95
2004-07-15 07:57:19 51°14.481 2°43.014 15.7 354 16.8 101540 95
2004-07-15 07:57:25 51°14.48 2°42.977 14 355 16.8 101520 95
2004-07-15 07:57:28 51°14.48 2°42.959 14.3 354 16.8 101520 95
2004-07-15 07:57:35 51°14.479 2°42.916 15 353 16.8 101550 95
2004-07-15 07:57:40 51°14.479 2°42.885 15.9 356 16.8 101550 95
2004-07-15 07:57:45 51°14.478 2°42.855 15 355 16.8 101540 95
2004-07-15 07:57:49 51°14.478 2°42.831 14.6 352 16.8 101540 95
2004-07-15 07:57:55 51°14.478 2°42.794 15.8 354 16.8 101540 95
2004-07-15 07:58:00 51°14.477 2°42.764 14.4 354 16.8 101540 95
2004-07-15 07:58:05 51°14.477 2°42.733 14.4 355 16.8 101540 95
2004-07-15 07:58:09 51°14.476 2°42.709 14 355 16.8 101540 95
2004-07-15 07:58:15 51°14.476 2°42.672 15.8 355 16.8 101530 95
2004-07-15 07:58:19 51°14.476 2°42.648 14.2 354 16.8 101530 95
2004-07-15 07:58:25 51°14.475 2°42.611 14.7 355 16.8 101540 95
2004-07-15 07:58:31 51°14.475 2°42.575 14.9 358 16.8 101540 95
2004-07-15 07:58:35 51°14.475 2°42.551 14.4 1 16.8 101530 95
2004-07-15 07:58:40 51°14.474 2°42.52 15 355 16.8 101530 95
2004-07-15 07:58:45 51°14.474 2°42.49 14 355 16.8 101540 95
2004-07-15 07:58:49 51°14.473 2°42.466 14.2 357 16.8 101540 95
2004-07-15 07:58:55 51°14.473 2°42.43 14.4 354 16.8 101540 95
2004-07-15 07:59:00 51°14.473 2°42.4 14.5 356 16.8 101540 95
2004-07-15 07:59:05 51°14.472 2°42.37 14.6 354 16.8 101540 95
2004-07-15 07:59:11 51°14.472 2°42.334 14.8 353 16.8 101540 95
2004-07-15 07:59:15 51°14.472 2°42.31 14.9 355 16.8 101550 95
2004-07-15 07:59:20 51°14.471 2°42.279 14.6 355 16.8 101550 95
2004-07-15 07:59:25 51°14.47 2°42.249 14.6 357 16.8 101540 95
2004-07-15 07:59:30 51°14.47 2°42.22 15 354 16.8 101540 95
2004-07-15 07:59:35 51°14.47 2°42.19 15.2 356 16.8 101540 95
2004-07-15 07:59:40 51°14.469 2°42.16 15.1 353 16.8 101540 95
2004-07-15 07:59:45 51°14.469 2°42.13 15 354 16.8 101530 95
2004-07-15 07:59:51 51°14.468 2°42.094 14.6 354 16.8 101530 95
2004-07-15 07:59:55 51°14.468 2°42.07 14.9 356 16.8 101550 95
2004-07-15 08:00:00 51°14.467 2°42.04 14.2 353 16.8 101550 95
2004-07-15 08:00:05 51°14.467 2°42.01 14.6 355 16.8 101540 95
2004-07-15 08:00:10 51°14.466 2°41.981 15 355 16.8 101540 95
2004-07-15 08:00:15 51°14.466 2°41.951 14.9 355 16.8 101540 95
2004-07-15 08:00:20 51°14.466 2°41.921 15 357 16.8 101540 95
2004-07-15 08:00:25 51°14.465 2°41.891 15.3 354 16.8 101540 95
2004-07-15 08:00:31 51°14.464 2°41.855 15.7 354 16.8 101540 95
2004-07-15 08:00:35 51°14.464 2°41.831 14 351 16.8 101550 95
2004-07-15 08:00:39 51°14.464 2°41.807 15.3 354 16.8 101550 95
2004-07-15 08:00:45 51°14.463 2°41.772 14.8 356 16.8 101550 95
2004-07-15 08:00:50 51°14.463 2°41.742 14.2 355 16.8 101550 95
2004-07-15 08:00:55 51°14.462 2°41.712 13.8 355 16.8 101540 95
2004-07-15 08:01:00 51°14.462 2°41.682 14.4 356 16.8 101540 95
2004-07-15 08:01:05 51°14.461 2°41.652 15.2 356 16.8 101530 95
2004-07-15 08:01:10 51°14.461 2°41.622 14.5 356 16.8 101530 95
2004-07-15 08:01:15 51°14.46 2°41.592 13.9 350 16.8 101550 95
2004-07-15 08:01:20 51°14.46 2°41.562 14.4 355 16.8 101550 95
2004-07-15 08:01:24 51°14.459 2°41.538 14.3 355 16.8 101550 95
2004-07-15 08:01:27 51°14.459 2°41.521 15 352 16.8 101550 95
2004-07-15 08:01:35 51°14.458 2°41.473 14.7 354 16.8 101540 95
2004-07-15 08:01:39 51°14.458 2°41.449 15.1 356 16.8 101540 95
2004-07-15 08:01:45 51°14.456 2°41.414 14.7 359 16.8 101540 95
2004-07-15 08:01:49 51°14.454 2°41.39 14.2 355 16.8 101540 95
2004-07-15 08:01:55 51°14.451 2°41.355 14.7 1 16.8 101520 95
2004-07-15 08:02:00 51°14.447 2°41.326 14.8 2 16.8 101520 95
2004-07-15 08:02:05 51°14.444 2°41.296 14.7 1 16.8 101540 95
2004-07-15 08:02:11 51°14.439 2°41.261 14.4 360 16.8 101540 95
2004-07-15 08:02:15 51°14.436 2°41.238 15.5 359 16.8 101540 95
2004-07-15 08:02:20 51°14.433 2°41.208 14.8 360 16.8 101540 95
2004-07-15 08:02:25 51°14.429 2°41.179 15.5 357 16.8 101560 95
2004-07-15 08:02:29 51°14.426 2°41.155 14.6 359 16.8 101560 95
2004-07-15 08:02:35 51°14.421 2°41.12 13.7 357 16.8 101550 95
2004-07-15 08:02:39 51°14.419 2°41.096 13.8 360 16.8 101550 95
2004-07-15 08:02:45 51°14.415 2°41.061 13.3 358 16.8 101540 95
2004-07-15 08:02:50 51°14.412 2°41.031 15.3 358 16.8 101540 95
2004-07-15 08:02:55 51°14.409 2°41.002 14.8 358 16.8 101540 95
2004-07-15 08:03:00 51°14.407 2°40.972 15.1 356 16.8 101540 95
2004-07-15 08:03:05 51°14.404 2°40.943 15.4 357 16.8 101550 95
2004-07-15 08:03:11 51°14.401 2°40.907 16 356 16.8 101550 95
2004-07-15 08:03:15 51°14.399 2°40.883 15.8 356 16.8 101550 95
2004-07-15 08:03:20 51°14.397 2°40.854 14.3 358 16.8 101550 95
2004-07-15 08:03:25 51°14.394 2°40.824 15.7 356 16.8 101540 95
2004-07-15 08:03:30 51°14.391 2°40.795 14 355 16.8 101540 95
2004-07-15 08:03:35 51°14.389 2°40.766 14.4 358 16.8 101540 95
2004-07-15 08:03:40 51°14.386 2°40.736 14.7 357 16.8 101540 95
2004-07-15 08:03:45 51°14.383 2°40.706 15 359 16.8 101540 95
2004-07-15 08:03:50 51°14.381 2°40.677 14.3 360 16.8 101540 95
2004-07-15 08:03:55 51°14.378 2°40.647 14.8 357 16.8 101540 95
2004-07-15 08:04:00 51°14.375 2°40.618 14.2 354 16.8 101540 95
2004-07-15 08:04:05 51°14.373 2°40.588 14.5 1 16.8 101550 95
2004-07-15 08:04:10 51°14.37 2°40.559 14.3 354 16.8 101550 95
2004-07-15 08:04:15 51°14.367 2°40.529 14.7 356 16.8 101550 95
2004-07-15 08:04:20 51°14.364 2°40.5 16 357 16.8 101550 95
2004-07-15 08:04:25 51°14.361 2°40.47 15.3 355 16.8 101540 95
2004-07-15 08:04:30 51°14.359 2°40.441 14.2 357 16.8 101540 95
2004-07-15 08:04:35 51°14.356 2°40.412 13.9 358 16.8 101550 95
2004-07-15 08:04:39 51°14.354 2°40.388 14.6 358 16.8 101550 95
2004-07-15 08:04:45 51°14.351 2°40.353 15.1 356 16.8 101540 95
2004-07-15 08:04:51 51°14.348 2°40.317 14.8 358 16.8 101540 95
2004-07-15 08:04:55 51°14.346 2°40.294 14.6 358 16.8 101540 95
2004-07-15 08:05:00 51°14.343 2°40.264 13.1 359 16.8 101540 95
2004-07-15 08:05:05 51°14.34 2°40.235 14.9 359 16.8 101550 95
2004-07-15 08:05:09 51°14.338 2°40.211 13.8   16.8 101550 95
2004-07-15 08:05:15 51°14.335 2°40.176 15.1 3 16.8 101540 95
2004-07-15 08:05:20 51°14.332 2°40.147 14.4 360 16.8 101540 95
2004-07-15 08:05:25 51°14.33 2°40.118 15 355 16.8 101540 95
2004-07-15 08:05:29 51°14.327 2°40.095 15.2 359 16.8 101540 95
2004-07-15 08:05:35 51°14.325 2°40.06 14.7 357 16.8 101540 95
2004-07-15 08:05:40 51°14.322 2°40.03 15.9 358 16.8 101540 95
2004-07-15 08:05:45 51°14.32 2°40.001 15.9 357 16.8 101550 95
2004-07-15 08:05:49 51°14.317 2°39.978 14.3 357 16.8 101550 95
2004-07-15 08:05:55 51°14.314 2°39.942 14.8 359 16.8 101550 95
2004-07-15 08:06:00 51°14.311 2°39.913 16.5 355 16.8 101550 95
2004-07-15 08:06:05 51°14.309 2°39.884 15.4 356 16.8 101560 95
2004-07-15 08:06:11 51°14.306 2°39.849 15 354 16.8 101560 95
2004-07-15 08:06:15 51°14.304 2°39.825 13.9 358 16.8 101530 95
2004-07-15 08:06:20 51°14.301 2°39.796 14.2 356 16.8 101530 95
2004-07-15 08:06:25 51°14.298 2°39.767 14.7 356 16.8 101530 95
2004-07-15 08:06:30 51°14.296 2°39.737 15.4 359 16.8 101530 95
2004-07-15 08:06:35 51°14.293 2°39.708 15.4 354 16.8 101540 95
2004-07-15 08:06:40 51°14.29 2°39.678 14.8 356 16.8 101540 95
2004-07-15 08:06:45 51°14.288 2°39.649 13.9 357 16.8 101540 95
2004-07-15 08:06:50 51°14.286 2°39.62 15.9 356 16.8 101540 95
2004-07-15 08:06:55 51°14.283 2°39.59 16.3 356 16.8 101530 95
2004-07-15 08:07:00 51°14.28 2°39.561 14.5 357 16.8 101530 95
2004-07-15 08:07:05 51°14.278 2°39.532 15.4 359 16.8 101550 95
2004-07-15 08:07:10 51°14.275 2°39.502 14.8 355 16.8 101550 95
2004-07-15 08:07:15 51°14.273 2°39.473 13.8 358 16.8 101540 95
2004-07-15 08:07:20 51°14.27 2°39.444 16.2 359 16.8 101540 95
2004-07-15 08:07:25 51°14.267 2°39.414 15.7 2 16.8 101540 95
2004-07-15 08:07:31 51°14.262 2°39.38 15.5 357 16.8 101540 95
2004-07-15 08:07:35 51°14.259 2°39.356 15.9 359 16.8 101550 95
2004-07-15 08:07:40 51°14.255 2°39.327 16.2 2 16.8 101550 95
2004-07-15 08:07:45 51°14.251 2°39.298 15.4 360 16.8 101540 95
2004-07-15 08:07:48 51°14.248 2°39.281 15.2 1 16.8 101540 95
2004-07-15 08:07:55 51°14.242 2°39.241 14.6 359 16.8 101550 95
2004-07-15 08:08:00 51°14.238 2°39.212 15.8 3 16.8 101550 95
2004-07-15 08:08:05 51°14.233 2°39.183 15   16.8 101550 95
2004-07-15 08:08:10 51°14.229 2°39.154 15.7 359 16.8 101550 95
2004-07-15 08:08:15 51°14.224 2°39.125 15.6 359 16.7 101540 95
2004-07-15 08:08:20 51°14.22 2°39.096 14.5 2 16.7 101540 95
2004-07-15 08:08:25 51°14.216 2°39.067 14.9 360 16.7 101560 95
2004-07-15 08:08:31 51°14.21 2°39.032 15.2 358 16.7 101560 95
2004-07-15 08:08:35 51°14.207 2°39.009 15.5 2 16.8 101550 95
2004-07-15 08:08:40 51°14.202 2°38.979 15.5 1 16.8 101550 95
2004-07-15 08:08:45 51°14.198 2°38.95 16 1 16.8 101530 95
2004-07-15 08:08:51 51°14.193 2°38.916 15.2 359 16.8 101530 95
2004-07-15 08:08:55 51°14.189 2°38.892 14.4   16.7 101560 95
2004-07-15 08:09:00 51°14.185 2°38.863 15.7 1 16.7 101560 95
2004-07-15 08:09:05 51°14.18 2°38.834 15.2 1 16.7 101540 95
2004-07-15 08:09:09 51°14.177 2°38.81 15.6 358 16.7 101540 95
2004-07-15 08:09:15 51°14.172 2°38.775 15.4 2 16.7 101550 95
2004-07-15 08:09:20 51°14.168 2°38.746 15.1 1 16.7 101550 95
2004-07-15 08:09:25 51°14.163 2°38.716 15.3 359 16.7 101550 95
2004-07-15 08:09:30 51°14.159 2°38.687 15.9 2 16.7 101550 95
2004-07-15 08:09:35 51°14.154 2°38.657 17.1   16.7 101540 95
2004-07-15 08:09:40 51°14.15 2°38.628 15.9 3 16.7 101540 95
2004-07-15 08:09:45 51°14.145 2°38.598 15.6 2 16.7 101540 95
2004-07-15 08:09:50 51°14.141 2°38.569 16 1 16.7 101540 95
2004-07-15 08:09:55 51°14.135 2°38.54 16.6 1 16.7 101550 95
2004-07-15 08:10:00 51°14.13 2°38.511 14.9 359 16.7 101550 95
2004-07-15 08:10:05 51°14.124 2°38.482 15.2 3 16.7 101570 95
2004-07-15 08:10:10 51°14.118 2°38.453 14.9 5 16.7 101570 95
2004-07-15 08:10:15 51°14.112 2°38.424 16 4 16.7 101550 95
2004-07-15 08:10:19 51°14.107 2°38.401 15.1 7 16.7 101550 95
2004-07-15 08:10:25 51°14.099 2°38.367 15.1 5 16.7 101560 95
2004-07-15 08:10:31 51°14.091 2°38.333 15.5 5 16.7 101560 95
2004-07-15 08:10:35 51°14.086 2°38.31 15.9 4 16.7 101550 95
2004-07-15 08:10:40 51°14.08 2°38.281 14.9 2 16.7 101550 95
2004-07-15 08:10:45 51°14.074 2°38.252 14.4 3 16.7 101560 95
2004-07-15 08:10:50 51°14.068 2°38.223 14.3 5 16.7 101560 95
2004-07-15 08:10:55 51°14.062 2°38.194 15.1 5 16.7 101550 95
2004-07-15 08:11:00 51°14.055 2°38.165 15.3 3 16.7 101550 95
2004-07-15 08:11:05 51°14.049 2°38.137 17.2 3 16.7 101550 95
2004-07-15 08:11:09 51°14.044 2°38.113 16.8 6 16.7 101550 95
2004-07-15 08:11:15 51°14.037 2°38.079 16.6 5 16.7 101560 95
2004-07-15 08:11:20 51°14.031 2°38.05 16 1 16.7 101560 95
2004-07-15 08:11:25 51°14.025 2°38.021 16.4 5 16.7 101550 95
2004-07-15 08:11:31 51°14.017 2°37.986 16.2 3 16.7 101550 95
2004-07-15 08:11:35 51°14.013 2°37.963 15.2 5 16.7 101550 95
2004-07-15 08:11:40 51°14.006 2°37.934 15 3 16.7 101550 95
2004-07-15 08:11:45 51°14.001 2°37.905 14.9 4 16.7 101550 95
2004-07-15 08:11:49 51°13.996 2°37.882 14.9 5 16.7 101550 95
2004-07-15 08:11:55 51°13.989 2°37.847 14.4 4 16.7 101550 95
2004-07-15 08:12:00 51°13.982 2°37.818 15 2 16.7 101550 95
2004-07-15 08:12:05 51°13.977 2°37.789 13.9 4 16.7 101550 95
2004-07-15 08:12:10 51°13.97 2°37.76 15 3 16.7 101550 95
2004-07-15 08:12:15 51°13.964 2°37.731 15.3 5 16.7 101560 95
2004-07-15 08:12:19 51°13.959 2°37.708 16.2 4 16.7 101560 95
2004-07-15 08:12:23 51°13.954 2°37.685 16.7 5 16.7 101550 95
2004-07-15 08:12:29 51°13.947 2°37.65 16.1 2 16.7 101550 95
2004-07-15 08:12:35 51°13.94 2°37.615 16.5 3 16.7 101560 95
2004-07-15 08:12:40 51°13.933 2°37.586 16.9 7 16.7 101560 95
2004-07-15 08:12:45 51°13.928 2°37.557 17 2 16.7 101560 95
2004-07-15 08:12:51 51°13.92 2°37.522 15.7 1 16.7 101560 95
2004-07-15 08:12:55 51°13.915 2°37.499 17 1 16.7 101560 95
2004-07-15 08:13:00 51°13.909 2°37.47 15.6 3 16.7 101560 95
2004-07-15 08:13:05 51°13.903 2°37.441 16.8 2 16.7 101560 95
2004-07-15 08:13:11 51°13.896 2°37.406 16 4 16.7 101560 95
2004-07-15 08:13:15 51°13.892 2°37.383 14.9 6 16.7 101550 95
2004-07-15 08:13:19 51°13.887 2°37.36 15.1 3 16.7 101550 95
2004-07-15 08:13:25 51°13.88 2°37.325 15.3 359 16.7 101560 95
2004-07-15 08:13:31 51°13.872 2°37.29 15.9 3 16.7 101560 95
2004-07-15 08:13:35 51°13.867 2°37.267 16.9 2 16.7 101550 95
2004-07-15 08:13:40 51°13.86 2°37.239 16.5 2 16.7 101550 95
2004-07-15 08:13:45 51°13.853 2°37.21 16.4 3 16.7 101550 95
2004-07-15 08:13:48 51°13.849 2°37.193 16.8 5 16.7 101550 95
2004-07-15 08:13:55 51°13.839 2°37.154 15.6 6 16.7 101540 95
2004-07-15 08:14:00 51°13.831 2°37.126 15.9 5 16.7 101540 95
2004-07-15 08:14:05 51°13.824 2°37.098 16.5 9 16.7 101550 95
2004-07-15 08:14:11 51°13.814 2°37.065 16.8 5 16.7 101550 95
2004-07-15 08:14:15 51°13.808 2°37.043 16.9 6 16.7 101550 95
2004-07-15 08:14:20 51°13.8 2°37.015 15.9 6 16.7 101550 95
2004-07-15 08:14:25 51°13.791 2°36.987 15.8 6 16.7 101560 95
2004-07-15 08:14:30 51°13.783 2°36.96 17.3 8 16.7 101560 95
2004-07-15 08:14:35 51°13.775 2°36.932 15.8 6 16.7 101560 95
2004-07-15 08:14:40 51°13.767 2°36.904 16.3 11 16.7 101560 95
2004-07-15 08:14:45 51°13.76 2°36.877 15 9 16.7 101540 95
2004-07-15 08:14:50 51°13.752 2°36.849 16.6 7 16.7 101540 95
2004-07-15 08:14:55 51°13.744 2°36.821 15.3 7 16.7 101560 95
2004-07-15 08:14:59 51°13.737 2°36.799 15.4 8 16.7 101560 95
2004-07-15 08:15:05 51°13.728 2°36.766 16.3 6 16.7 101560 95
2004-07-15 08:15:07 51°13.725 2°36.755 17 4 16.7 101560 95
2004-07-15 08:15:15 51°13.711 2°36.711 15.9 7 16.7 101560 95
2004-07-15 08:15:20 51°13.704 2°36.683 15.8 9 16.7 101560 95
2004-07-15 08:15:25 51°13.695 2°36.655 17 9 16.7 101560 95
2004-07-15 08:15:29 51°13.689 2°36.633 14.9 7 16.7 101560 95
2004-07-15 08:15:35 51°13.68 2°36.6 15.1 4 16.7 101560 95
2004-07-15 08:15:40 51°13.672 2°36.572 15 3 16.7 101560 95
2004-07-15 08:15:45 51°13.664 2°36.544 15.5 7 16.7 101550 95
2004-07-15 08:15:50 51°13.656 2°36.517 15.6 11 16.7 101550 95
2004-07-15 08:15:55 51°13.648 2°36.489 14.6 2 16.7 101550 95
2004-07-15 08:16:00 51°13.64 2°36.461 14.7 2 16.7 101550 95
2004-07-15 08:16:05 51°13.632 2°36.434 15.9 5 16.7 101560 95
2004-07-15 08:16:10 51°13.625 2°36.406 15.6 5 16.7 101560 95
2004-07-15 08:16:15 51°13.617 2°36.378 17 4 16.7 101570 95
2004-07-15 08:16:19 51°13.61 2°36.356 15.8 6 16.7 101570 95
2004-07-15 08:16:25 51°13.601 2°36.323 16.8 7 16.7 101570 95
2004-07-15 08:16:31 51°13.591 2°36.29 17.1 8 16.7 101570 95
2004-07-15 08:16:35 51°13.584 2°36.269 16.6 10 16.7 101560 95
2004-07-15 08:16:40 51°13.575 2°36.241 17.4 9 16.7 101560 95
2004-07-15 08:16:45 51°13.567 2°36.214 16.7 9 16.7 101550 95
2004-07-15 08:16:51 51°13.556 2°36.182 16.1 8 16.7 101550 95
2004-07-15 08:16:55 51°13.549 2°36.161 17.1 10 16.7 101560 95
2004-07-15 08:17:00 51°13.54 2°36.134 15.8 11 16.7 101560 95
2004-07-15 08:17:05 51°13.532 2°36.107 15.9 8 16.7 101560 95
2004-07-15 08:17:09 51°13.525 2°36.085 16.1 9 16.7 101560 95
2004-07-15 08:17:15 51°13.515 2°36.053 15.3 5 16.7 101560 95
2004-07-15 08:17:20 51°13.506 2°36.026 15.3 6 16.7 101560 95
2004-07-15 08:17:25 51°13.497 2°35.999 15.7 6 16.7 101540 95
2004-07-15 08:17:29 51°13.49 2°35.978 15.9 5 16.7 101540 95
2004-07-15 08:17:35 51°13.48 2°35.945 16.2 9 16.7 101560 95
2004-07-15 08:17:40 51°13.471 2°35.918 16.5 9 16.7 101560 95
2004-07-15 08:17:45 51°13.462 2°35.892 16.5 8 16.7 101560 95
2004-07-15 08:17:50 51°13.453 2°35.865 16.1 12 16.7 101560 95
2004-07-15 08:17:55 51°13.445 2°35.838 15.7 13 16.7 101560 95
2004-07-15 08:18:00 51°13.436 2°35.811 15 7 16.7 101560 95
2004-07-15 08:18:05 51°13.428 2°35.784 15.3 7 16.7 101570 95
2004-07-15 08:18:10 51°13.419 2°35.757 16.5 5 16.7 101570 95
2004-07-15 08:18:15 51°13.41 2°35.73 15 8 16.7 101550 95
2004-07-15 08:18:19 51°13.403 2°35.709 15.3 1 16.7 101550 95
2004-07-15 08:18:25 51°13.393 2°35.676 17 7 16.7 101580 95
2004-07-15 08:18:31 51°13.383 2°35.644 15.9 8 16.7 101580 95
2004-07-15 08:18:35 51°13.375 2°35.623 16 14 16.7 101580 95
2004-07-15 08:18:40 51°13.367 2°35.596 16.2 4 16.7 101580 95
2004-07-15 08:18:45 51°13.358 2°35.569 16.5 8 16.7 101580 95
2004-07-15 08:18:50 51°13.35 2°35.542 16.6 9 16.7 101580 95
2004-07-15 08:18:55 51°13.341 2°35.515 16.1 9 16.7 101570 95
2004-07-15 08:19:00 51°13.333 2°35.488 16.5 8 16.7 101570 95
2004-07-15 08:19:05 51°13.324 2°35.461 16.1 9 16.7 101570 95
2004-07-15 08:19:11 51°13.314 2°35.429 16.5 11 16.7 101570 95
2004-07-15 08:19:15 51°13.307 2°35.407 16.5 8 16.7 101570 95
2004-07-15 08:19:20 51°13.298 2°35.38 16.3 7 16.7 101570 95
2004-07-15 08:19:25 51°13.29 2°35.353 16.4 8 16.7 101580 95
2004-07-15 08:19:29 51°13.283 2°35.332 16.5 11 16.7 101580 95
2004-07-15 08:19:35 51°13.272 2°35.3 14.6 6 16.7 101580 95
2004-07-15 08:19:40 51°13.264 2°35.273 16.3 11 16.7 101580 95
2004-07-15 08:19:45 51°13.255 2°35.246 15.2 11 16.7 101580 95
2004-07-15 08:19:51 51°13.245 2°35.214 15.9 7 16.7 101580 95
2004-07-15 08:19:55 51°13.238 2°35.192 15.9 9 16.7 101580 95
2004-07-15 08:20:00 51°13.229 2°35.165 14.9 7 16.7 101580 95
2004-07-15 08:20:05 51°13.221 2°35.138 15.5 10 16.7 101580 95
2004-07-15 08:20:10 51°13.212 2°35.111 15.2 8 16.7 101580 95
2004-07-15 08:20:15 51°13.203 2°35.084 17 11 16.7 101580 95
2004-07-15 08:20:19 51°13.196 2°35.062 15.8 7 16.7 101580 95
2004-07-15 08:20:25 51°13.186 2°35.03 14.6 7 16.7 101590 95
2004-07-15 08:20:31 51°13.175 2°34.998 15.3 10 16.7 101590 95
2004-07-15 08:20:35 51°13.169 2°34.976 14.3 8 16.7 101580 95
2004-07-15 08:20:40 51°13.16 2°34.949 14.8 7 16.7 101580 95
2004-07-15 08:20:45 51°13.151 2°34.922 14.8 8 16.7 101590 95
2004-07-15 08:20:51 51°13.141 2°34.89 15.2 7 16.7 101590 95
2004-07-15 08:20:55 51°13.134 2°34.868 15.9 11 16.7 101590 95
2004-07-15 08:21:00 51°13.125 2°34.841 16.9 8 16.7 101590 95
2004-07-15 08:21:05 51°13.117 2°34.814 16.5 11 16.7 101580 95
2004-07-15 08:21:11 51°13.106 2°34.782 15.4 8 16.7 101580 95
2004-07-15 08:21:15 51°13.099 2°34.76 16.4 7 16.7 101590 95
2004-07-15 08:21:20 51°13.091 2°34.733 16.2 8 16.7 101590 95
2004-07-15 08:21:23 51°13.086 2°34.717 16.7 6 16.7 101580 95
2004-07-15 08:21:31 51°13.072 2°34.674 15.1 8 16.7 101580 95
2004-07-15 08:21:35 51°13.065 2°34.653 14.8 6 16.7 101580 95
2004-07-15 08:21:40 51°13.056 2°34.625 14.9 10 16.7 101580 95
2004-07-15 08:21:45 51°13.047 2°34.599 15.9 8 16.7 101580 95
2004-07-15 08:21:50 51°13.039 2°34.572 15.3 6 16.7 101580 95
2004-07-15 08:21:55 51°13.03 2°34.545 15 9 16.7 101590 95
2004-07-15 08:22:00 51°13.022 2°34.518 16.3 6 16.7 101590 95
2004-07-15 08:22:05 51°13.013 2°34.491 14.9 9 16.7 101580 95
2004-07-15 08:22:10 51°13.005 2°34.464 15.1 6 16.7 101580 95
2004-07-15 08:22:15 51°12.996 2°34.438 15.1 9 16.7 101590 95
2004-07-15 08:22:19 51°12.989 2°34.417 14.6 7 16.7 101590 95
2004-07-15 08:22:25 51°12.978 2°34.385 17.1 10 16.7 101570 95
2004-07-15 08:22:31 51°12.968 2°34.353 16.9 8 16.7 101570 95
2004-07-15 08:22:35 51°12.961 2°34.332 17.1 7 16.7 101560 95
2004-07-15 08:22:40 51°12.953 2°34.305 17 6 16.7 101560 95
2004-07-15 08:22:45 51°12.944 2°34.278 16.7 9 16.7 101560 95
2004-07-15 08:22:50 51°12.936 2°34.251 15.1 7 16.7 101560 95
2004-07-15 08:22:55 51°12.927 2°34.225 15.8 7 16.7 101540 95
2004-07-15 08:23:00 51°12.918 2°34.198 16 5 16.7 101540 95
2004-07-15 08:23:05 51°12.91 2°34.172 15.2 8 16.7 101550 95
2004-07-15 08:23:11 51°12.9 2°34.14 15 10 16.7 101550 95
2004-07-15 08:23:15 51°12.893 2°34.119 16.1 9 16.7 101560 95
2004-07-15 08:23:20 51°12.884 2°34.092 14.8 9 16.7 101560 95
2004-07-15 08:23:25 51°12.876 2°34.066 15.7 9 16.7 101570 95
2004-07-15 08:23:29 51°12.869 2°34.044 15.4 12 16.7 101570 95
2004-07-15 08:23:32 51°12.864 2°34.029 15.6 6 16.7 101560 95
2004-07-15 08:23:40 51°12.85 2°33.986 15.7 9 16.7 101560 95
2004-07-15 08:23:45 51°12.841 2°33.96 14.1 8 16.7 101560 95
2004-07-15 08:23:51 51°12.831 2°33.928 15.5 7 16.7 101560 95
2004-07-15 08:23:55 51°12.824 2°33.907 15.7 9 16.7 101570 95
2004-07-15 08:23:59 51°12.817 2°33.885 15.1 8 16.7 101570 95
2004-07-15 08:24:05 51°12.807 2°33.854 16.1 9 16.7 101560 95
2004-07-15 08:24:09 51°12.8 2°33.833 15.1 14 16.7 101560 95
2004-07-15 08:24:15 51°12.789 2°33.801 15.6 6 16.7 101560 95
2004-07-15 08:24:20 51°12.781 2°33.774 15.1 10 16.7 101560 95
2004-07-15 08:24:25 51°12.772 2°33.748 15.4 10 16.7 101560 95
2004-07-15 08:24:30 51°12.764 2°33.721 17.2 10 16.7 101560 95
2004-07-15 08:24:35 51°12.755 2°33.695 15.6 10 16.6 101550 95
2004-07-15 08:24:39 51°12.748 2°33.674 15 7 16.6 101550 95